SNC777 TFFF-TISX
Flight info
| Callsign | SNC777 |
|---|---|
| Flight time | 2h 0m |
| Altitude | 8000 |
| Route | EMOLA2R EMOLA A555 COY DCT |
| Aircraft | C208/L-SDFGR/C |
Departure
| Time | 2026-05-04 20:50 |
|---|---|
| Airport | Martinique Aimé Césaire International Airport (TFFF) |
Arrival
| Time | 2026-05-04 22:51 |
|---|---|
| Airport | Henry E. Rohlsen Airport (TISX) |
| Time | Latitude | Longitude | Altitude | Speed | Heading |
|---|---|---|---|---|---|
| 2026-05-04 20:37 | 14.59496 | -60.99918 | 21 ft | 0 kts | 350° |
| 2026-05-04 20:44 | 14.59492 | -60.99917 | 21 ft | 2 kts | 346° |
| 2026-05-04 20:45 | 14.59478 | -60.99909 | 21 ft | 3 kts | 316° |
| 2026-05-04 20:45 | 14.59468 | -60.99892 | 21 ft | 3 kts | 287° |
| 2026-05-04 20:45 | 14.59467 | -60.99887 | 21 ft | 0 kts | 282° |
| 2026-05-04 20:46 | 14.59468 | -60.99895 | 21 ft | 7 kts | 278° |
| 2026-05-04 20:46 | 14.59435 | -60.99959 | 21 ft | 16 kts | 218° |
| 2026-05-04 20:46 | 14.59368 | -61.00037 | 21 ft | 4 kts | 237° |
| 2026-05-04 20:46 | 14.59294 | -61.00035 | 21 ft | 15 kts | 169° |
| 2026-05-04 20:47 | 14.59278 | -61.00031 | 21 ft | 0 kts | 169° |
| 2026-05-04 20:47 | 14.59268 | -61.00030 | 21 ft | 9 kts | 169° |
| 2026-05-04 20:47 | 14.59155 | -61.00036 | 21 ft | 13 kts | 242° |
| 2026-05-04 20:47 | 14.59131 | -61.00163 | 21 ft | 16 kts | 261° |
| 2026-05-04 20:48 | 14.59105 | -61.00322 | 21 ft | 32 kts | 259° |
| 2026-05-04 20:48 | 14.59052 | -61.00584 | 21 ft | 43 kts | 258° |
| 2026-05-04 20:48 | 14.58993 | -61.00867 | 21 ft | 36 kts | 256° |
| 2026-05-04 20:48 | 14.58979 | -61.01097 | 21 ft | 28 kts | 286° |
| 2026-05-04 20:49 | 14.58952 | -61.01179 | 21 ft | 13 kts | 156° |
| 2026-05-04 20:49 | 14.58941 | -61.01161 | 21 ft | 0 kts | 81° |
| 2026-05-04 20:49 | 14.58963 | -61.01022 | 21 ft | 54 kts | 80° |
| 2026-05-04 20:50 | 14.59072 | -61.00484 | 185 ft | 87 kts | 75° |
| 2026-05-04 20:50 | 14.59268 | -60.99833 | 390 ft | 102 kts | 74° |
| 2026-05-04 20:50 | 14.59373 | -60.99093 | 645 ft | 105 kts | 83° |
| 2026-05-04 20:50 | 14.59472 | -60.98335 | 904 ft | 108 kts | 82° |
| 2026-05-04 20:51 | 14.59549 | -60.97824 | 1075 ft | 109 kts | 81° |
| 2026-05-04 20:51 | 14.59676 | -60.97042 | 1346 ft | 112 kts | 81° |
| 2026-05-04 20:51 | 14.59811 | -60.96231 | 1618 ft | 117 kts | 81° |
| 2026-05-04 20:51 | 14.59954 | -60.95391 | 1876 ft | 121 kts | 81° |
| 2026-05-04 20:52 | 14.60106 | -60.94499 | 2120 ft | 129 kts | 81° |
| 2026-05-04 20:52 | 14.60262 | -60.93584 | 2362 ft | 129 kts | 82° |
| 2026-05-04 20:52 | 14.60417 | -60.92682 | 2610 ft | 129 kts | 81° |
| 2026-05-04 20:52 | 14.60573 | -60.91771 | 2851 ft | 129 kts | 82° |
| 2026-05-04 20:53 | 14.60782 | -60.90867 | 3064 ft | 132 kts | 67° |
| 2026-05-04 20:53 | 14.61528 | -60.90314 | 3312 ft | 142 kts | 17° |
| 2026-05-04 20:53 | 14.62524 | -60.90449 | 3593 ft | 148 kts | 349° |
| 2026-05-04 20:53 | 14.63521 | -60.90746 | 3841 ft | 150 kts | 349° |
| 2026-05-04 20:54 | 14.64532 | -60.91004 | 4089 ft | 150 kts | 353° |
| 2026-05-04 20:54 | 14.65556 | -60.91218 | 4340 ft | 150 kts | 355° |
| 2026-05-04 20:54 | 14.66592 | -60.91405 | 4582 ft | 151 kts | 356° |
| 2026-05-04 20:54 | 14.67632 | -60.91573 | 4831 ft | 151 kts | 357° |
| 2026-05-04 20:55 | 14.68670 | -60.91731 | 5070 ft | 150 kts | 357° |
| 2026-05-04 20:55 | 14.69702 | -60.91883 | 5308 ft | 149 kts | 358° |
| 2026-05-04 20:55 | 14.70729 | -60.92032 | 5562 ft | 149 kts | 358° |
| 2026-05-04 20:55 | 14.71756 | -60.92179 | 5790 ft | 149 kts | 358° |
| 2026-05-04 20:56 | 14.72772 | -60.92324 | 6029 ft | 149 kts | 358° |
| 2026-05-04 20:56 | 14.73800 | -60.92470 | 6278 ft | 149 kts | 358° |
| 2026-05-04 20:56 | 14.74829 | -60.92616 | 6539 ft | 150 kts | 358° |
| 2026-05-04 20:56 | 14.75875 | -60.92761 | 6792 ft | 153 kts | 358° |
| 2026-05-04 20:57 | 14.76944 | -60.92913 | 7044 ft | 155 kts | 358° |
| 2026-05-04 20:57 | 14.78010 | -60.93064 | 7280 ft | 153 kts | 358° |
| 2026-05-04 20:57 | 14.79062 | -60.93215 | 7526 ft | 152 kts | 358° |
| 2026-05-04 20:57 | 14.80106 | -60.93363 | 7768 ft | 152 kts | 358° |
| 2026-05-04 20:58 | 14.81171 | -60.93512 | 7923 ft | 157 kts | 357° |
| 2026-05-04 20:58 | 14.82281 | -60.93667 | 7996 ft | 165 kts | 357° |
| 2026-05-04 20:58 | 14.83441 | -60.93828 | 8007 ft | 174 kts | 357° |
| 2026-05-04 20:58 | 14.84649 | -60.93999 | 8003 ft | 175 kts | 357° |
| 2026-05-04 20:59 | 14.85855 | -60.94171 | 8000 ft | 175 kts | 357° |
| 2026-05-04 20:59 | 14.87057 | -60.94342 | 8000 ft | 174 kts | 357° |
| 2026-05-04 20:59 | 14.88257 | -60.94513 | 7996 ft | 174 kts | 357° |
| 2026-05-04 20:59 | 14.89452 | -60.94683 | 7999 ft | 173 kts | 357° |
| 2026-05-04 21:00 | 14.90648 | -60.94852 | 8000 ft | 173 kts | 357° |
| 2026-05-04 21:00 | 14.91844 | -60.95022 | 8000 ft | 173 kts | 357° |
| 2026-05-04 21:00 | 14.93038 | -60.95216 | 7997 ft | 175 kts | 350° |
| 2026-05-04 21:00 | 14.94035 | -60.95946 | 7997 ft | 182 kts | 308° |
| 2026-05-04 21:01 | 14.94569 | -60.97127 | 8011 ft | 183 kts | 290° |
| 2026-05-04 21:01 | 14.94931 | -60.98375 | 8005 ft | 184 kts | 286° |
| 2026-05-04 21:01 | 14.95264 | -60.99652 | 8003 ft | 184 kts | 285° |
| 2026-05-04 21:01 | 14.95600 | -61.00934 | 8001 ft | 184 kts | 285° |
| 2026-05-04 21:02 | 14.95942 | -61.02209 | 8000 ft | 184 kts | 286° |
| 2026-05-04 21:02 | 14.96229 | -61.03263 | 7999 ft | 184 kts | 286° |
| 2026-05-04 21:02 | 14.96582 | -61.04537 | 8000 ft | 184 kts | 287° |
| 2026-05-04 21:02 | 14.96937 | -61.05810 | 7999 ft | 184 kts | 287° |
| 2026-05-04 21:03 | 14.97295 | -61.07082 | 8000 ft | 184 kts | 287° |
| 2026-05-04 21:03 | 14.97653 | -61.08354 | 8000 ft | 184 kts | 287° |
| 2026-05-04 21:03 | 14.98012 | -61.09625 | 8000 ft | 184 kts | 287° |
| 2026-05-04 21:03 | 14.98372 | -61.10898 | 7999 ft | 184 kts | 287° |
| 2026-05-04 21:04 | 14.98731 | -61.12168 | 8000 ft | 184 kts | 287° |
| 2026-05-04 21:04 | 14.99091 | -61.13440 | 8000 ft | 184 kts | 287° |
| 2026-05-04 21:04 | 14.99451 | -61.14710 | 7999 ft | 184 kts | 287° |
| 2026-05-04 21:04 | 14.99811 | -61.15981 | 8000 ft | 184 kts | 287° |
| 2026-05-04 21:05 | 15.00171 | -61.17255 | 8000 ft | 184 kts | 287° |
| 2026-05-04 21:05 | 15.00531 | -61.18526 | 8000 ft | 184 kts | 287° |
| 2026-05-04 21:05 | 15.00891 | -61.19799 | 8000 ft | 184 kts | 287° |
| 2026-05-04 21:05 | 15.01251 | -61.21070 | 8000 ft | 184 kts | 287° |
| 2026-05-04 21:06 | 15.01606 | -61.22325 | 8000 ft | 184 kts | 287° |
| 2026-05-04 21:06 | 15.01966 | -61.23597 | 7997 ft | 184 kts | 287° |
| 2026-05-04 21:06 | 15.02326 | -61.24870 | 8000 ft | 184 kts | 287° |
| 2026-05-04 21:06 | 15.02685 | -61.26141 | 8000 ft | 184 kts | 287° |
| 2026-05-04 21:07 | 15.03044 | -61.27413 | 8000 ft | 184 kts | 287° |
| 2026-05-04 21:07 | 15.03404 | -61.28686 | 8000 ft | 184 kts | 287° |
| 2026-05-04 21:07 | 15.03764 | -61.29961 | 8000 ft | 185 kts | 287° |
| 2026-05-04 21:07 | 15.04124 | -61.31236 | 8008 ft | 184 kts | 287° |
| 2026-05-04 21:08 | 15.04484 | -61.32512 | 8012 ft | 185 kts | 287° |
| 2026-05-04 21:08 | 15.04845 | -61.33789 | 8013 ft | 185 kts | 287° |
| 2026-05-04 21:08 | 15.05205 | -61.35065 | 8012 ft | 185 kts | 287° |
| 2026-05-04 21:08 | 15.05565 | -61.36343 | 8012 ft | 185 kts | 287° |
| 2026-05-04 21:09 | 15.05927 | -61.37624 | 8012 ft | 185 kts | 287° |
| 2026-05-04 21:09 | 15.06288 | -61.38904 | 8012 ft | 185 kts | 287° |
| 2026-05-04 21:09 | 15.06649 | -61.40186 | 8012 ft | 185 kts | 287° |
| 2026-05-04 21:09 | 15.07010 | -61.41468 | 8004 ft | 186 kts | 287° |
| 2026-05-04 21:10 | 15.07371 | -61.42749 | 8002 ft | 186 kts | 287° |
| 2026-05-04 21:10 | 15.07734 | -61.44035 | 8001 ft | 186 kts | 287° |
| 2026-05-04 21:10 | 15.08094 | -61.45315 | 8001 ft | 185 kts | 287° |
| 2026-05-04 21:10 | 15.08450 | -61.46579 | 8001 ft | 185 kts | 287° |
| 2026-05-04 21:11 | 15.08812 | -61.47865 | 8001 ft | 185 kts | 287° |
| 2026-05-04 21:11 | 15.09173 | -61.49145 | 8001 ft | 185 kts | 287° |
| 2026-05-04 21:11 | 15.09533 | -61.50425 | 8000 ft | 185 kts | 287° |
| 2026-05-04 21:11 | 15.09893 | -61.51705 | 8000 ft | 185 kts | 287° |
| 2026-05-04 21:12 | 15.10253 | -61.52985 | 7997 ft | 185 kts | 287° |
| 2026-05-04 21:12 | 15.10541 | -61.54009 | 7999 ft | 185 kts | 287° |
| 2026-05-04 21:12 | 15.10901 | -61.55288 | 8000 ft | 185 kts | 287° |
| 2026-05-04 21:12 | 15.11259 | -61.56565 | 8000 ft | 185 kts | 287° |
| 2026-05-04 21:13 | 15.11619 | -61.57843 | 8000 ft | 185 kts | 287° |
| 2026-05-04 21:13 | 15.11978 | -61.59122 | 8000 ft | 185 kts | 287° |
| 2026-05-04 21:13 | 15.12337 | -61.60401 | 8000 ft | 185 kts | 287° |
| 2026-05-04 21:13 | 15.12696 | -61.61679 | 7999 ft | 185 kts | 287° |
| 2026-05-04 21:14 | 15.13055 | -61.62958 | 8000 ft | 185 kts | 287° |
| 2026-05-04 21:14 | 15.13554 | -61.64175 | 8001 ft | 184 kts | 302° |
| 2026-05-04 21:14 | 15.14278 | -61.65261 | 8002 ft | 183 kts | 309° |
| 2026-05-04 21:14 | 15.15075 | -61.66289 | 8001 ft | 183 kts | 312° |
| 2026-05-04 21:15 | 15.15900 | -61.67292 | 8001 ft | 183 kts | 313° |
| 2026-05-04 21:15 | 15.16736 | -61.68284 | 8001 ft | 183 kts | 314° |
| 2026-05-04 21:15 | 15.17580 | -61.69272 | 8001 ft | 183 kts | 314° |
| 2026-05-04 21:15 | 15.18424 | -61.70254 | 8001 ft | 183 kts | 314° |
| 2026-05-04 21:16 | 15.19263 | -61.71226 | 8001 ft | 183 kts | 315° |
| 2026-05-04 21:16 | 15.20112 | -61.72207 | 8001 ft | 183 kts | 315° |
| 2026-05-04 21:16 | 15.20959 | -61.73185 | 8001 ft | 183 kts | 315° |
| 2026-05-04 21:16 | 15.21810 | -61.74166 | 8001 ft | 183 kts | 315° |
| 2026-05-04 21:17 | 15.22660 | -61.75145 | 7999 ft | 183 kts | 315° |
| 2026-05-04 21:17 | 15.23508 | -61.76123 | 8001 ft | 183 kts | 315° |
| 2026-05-04 21:17 | 15.24357 | -61.77101 | 7997 ft | 183 kts | 315° |
| 2026-05-04 21:17 | 15.25207 | -61.78080 | 8001 ft | 182 kts | 315° |
| 2026-05-04 21:18 | 15.26057 | -61.79060 | 8001 ft | 183 kts | 315° |
| 2026-05-04 21:18 | 15.26907 | -61.80039 | 8002 ft | 183 kts | 315° |
| 2026-05-04 21:18 | 15.27759 | -61.81022 | 8002 ft | 183 kts | 315° |
| 2026-05-04 21:18 | 15.28612 | -61.82004 | 8002 ft | 183 kts | 315° |
| 2026-05-04 21:19 | 15.29465 | -61.82988 | 8001 ft | 183 kts | 315° |
| 2026-05-04 21:19 | 15.30318 | -61.83971 | 8002 ft | 183 kts | 315° |
| 2026-05-04 21:19 | 15.31171 | -61.84954 | 8003 ft | 183 kts | 315° |
| 2026-05-04 21:19 | 15.32025 | -61.85939 | 8002 ft | 183 kts | 315° |
| 2026-05-04 21:20 | 15.32877 | -61.86923 | 8003 ft | 183 kts | 315° |
| 2026-05-04 21:20 | 15.33721 | -61.87896 | 8004 ft | 183 kts | 315° |
| 2026-05-04 21:20 | 15.34573 | -61.88879 | 8019 ft | 183 kts | 315° |
| 2026-05-04 21:20 | 15.35424 | -61.89860 | 8023 ft | 183 kts | 315° |
| 2026-05-04 21:21 | 15.36274 | -61.90842 | 8020 ft | 183 kts | 315° |
| 2026-05-04 21:21 | 15.37125 | -61.91824 | 8024 ft | 183 kts | 315° |
| 2026-05-04 21:21 | 15.37977 | -61.92807 | 8025 ft | 183 kts | 315° |
| 2026-05-04 21:21 | 15.38830 | -61.93792 | 8025 ft | 183 kts | 315° |
| 2026-05-04 21:22 | 15.39683 | -61.94776 | 8025 ft | 184 kts | 315° |
| 2026-05-04 21:22 | 15.40536 | -61.95762 | 8026 ft | 184 kts | 315° |
| 2026-05-04 21:22 | 15.41391 | -61.96750 | 8026 ft | 184 kts | 315° |
| 2026-05-04 21:22 | 15.42244 | -61.97735 | 8026 ft | 184 kts | 315° |
| 2026-05-04 21:23 | 15.43085 | -61.98707 | 8027 ft | 184 kts | 315° |
| 2026-05-04 21:23 | 15.43940 | -61.99694 | 8027 ft | 184 kts | 315° |
| 2026-05-04 21:23 | 15.44794 | -62.00681 | 8027 ft | 184 kts | 315° |
| 2026-05-04 21:23 | 15.45649 | -62.01669 | 8027 ft | 184 kts | 315° |
| 2026-05-04 21:24 | 15.46502 | -62.02654 | 8028 ft | 184 kts | 315° |
| 2026-05-04 21:24 | 15.47355 | -62.03640 | 8028 ft | 184 kts | 315° |
| 2026-05-04 21:24 | 15.48209 | -62.04628 | 8028 ft | 184 kts | 315° |
| 2026-05-04 21:24 | 15.49062 | -62.05614 | 8028 ft | 184 kts | 315° |
| 2026-05-04 21:25 | 15.49914 | -62.06600 | 8029 ft | 183 kts | 315° |
| 2026-05-04 21:25 | 15.50754 | -62.07571 | 8029 ft | 184 kts | 315° |
| 2026-05-04 21:25 | 15.51608 | -62.08559 | 8029 ft | 184 kts | 315° |
| 2026-05-04 21:25 | 15.52459 | -62.09544 | 8030 ft | 184 kts | 315° |
| 2026-05-04 21:26 | 15.53311 | -62.10529 | 8030 ft | 184 kts | 315° |
| 2026-05-04 21:26 | 15.54163 | -62.11516 | 8030 ft | 184 kts | 315° |
| 2026-05-04 21:26 | 15.55016 | -62.12503 | 8030 ft | 184 kts | 315° |
| 2026-05-04 21:26 | 15.55869 | -62.13490 | 8022 ft | 184 kts | 315° |
| 2026-05-04 21:27 | 15.56723 | -62.14480 | 8019 ft | 184 kts | 315° |
| 2026-05-04 21:27 | 15.57579 | -62.15470 | 8019 ft | 184 kts | 315° |
| 2026-05-04 21:27 | 15.58429 | -62.16455 | 8020 ft | 184 kts | 315° |
| 2026-05-04 21:27 | 15.59285 | -62.17447 | 8020 ft | 184 kts | 315° |
| 2026-05-04 21:28 | 15.60138 | -62.18434 | 8011 ft | 184 kts | 315° |
| 2026-05-04 21:28 | 15.60995 | -62.19427 | 8002 ft | 185 kts | 315° |
| 2026-05-04 21:28 | 15.61851 | -62.20419 | 8000 ft | 184 kts | 315° |
| 2026-05-04 21:28 | 15.62705 | -62.21410 | 7995 ft | 184 kts | 315° |
| 2026-05-04 21:29 | 15.63550 | -62.22389 | 7994 ft | 184 kts | 315° |
| 2026-05-04 21:29 | 15.64407 | -62.23382 | 7994 ft | 184 kts | 315° |
| 2026-05-04 21:29 | 15.65259 | -62.24371 | 7994 ft | 184 kts | 315° |
| 2026-05-04 21:29 | 15.66111 | -62.25359 | 7994 ft | 184 kts | 315° |
| 2026-05-04 21:30 | 15.66963 | -62.26348 | 7992 ft | 184 kts | 315° |
| 2026-05-04 21:30 | 15.67815 | -62.27337 | 7993 ft | 183 kts | 315° |
| 2026-05-04 21:30 | 15.68667 | -62.28325 | 7995 ft | 184 kts | 315° |
| 2026-05-04 21:30 | 15.69517 | -62.29311 | 7995 ft | 184 kts | 315° |
| 2026-05-04 21:31 | 15.71219 | -62.31288 | 7996 ft | 184 kts | 315° |
| 2026-05-04 21:31 | 15.72072 | -62.32278 | 7994 ft | 184 kts | 315° |
| 2026-05-04 21:31 | 15.72923 | -62.33266 | 7993 ft | 184 kts | 315° |
| 2026-05-04 21:32 | 15.73774 | -62.34255 | 7996 ft | 184 kts | 315° |
| 2026-05-04 21:32 | 15.74625 | -62.35244 | 7996 ft | 184 kts | 315° |
| 2026-05-04 21:32 | 15.75475 | -62.36232 | 7996 ft | 184 kts | 315° |
| 2026-05-04 21:32 | 15.76328 | -62.37222 | 7996 ft | 184 kts | 315° |
| 2026-05-04 21:33 | 15.77167 | -62.38198 | 7997 ft | 184 kts | 315° |
| 2026-05-04 21:33 | 15.78019 | -62.39188 | 7996 ft | 184 kts | 315° |
| 2026-05-04 21:33 | 15.78870 | -62.40177 | 7996 ft | 184 kts | 315° |
| 2026-05-04 21:33 | 15.79720 | -62.41166 | 7997 ft | 184 kts | 315° |
| 2026-05-04 21:34 | 15.80572 | -62.42156 | 7997 ft | 184 kts | 315° |
| 2026-05-04 21:34 | 15.81421 | -62.43144 | 8003 ft | 183 kts | 315° |
| 2026-05-04 21:34 | 15.82271 | -62.44132 | 8005 ft | 183 kts | 315° |
| 2026-05-04 21:34 | 15.83119 | -62.45119 | 8009 ft | 183 kts | 315° |
| 2026-05-04 21:35 | 15.83969 | -62.46107 | 8011 ft | 183 kts | 315° |
| 2026-05-04 21:35 | 15.84819 | -62.47097 | 8011 ft | 184 kts | 315° |
| 2026-05-04 21:35 | 15.85670 | -62.48087 | 8011 ft | 184 kts | 315° |
| 2026-05-04 21:35 | 15.86521 | -62.49078 | 8012 ft | 184 kts | 315° |
| 2026-05-04 21:36 | 15.87371 | -62.50067 | 8012 ft | 184 kts | 315° |
| 2026-05-04 21:36 | 15.88222 | -62.51058 | 8012 ft | 184 kts | 315° |
| 2026-05-04 21:36 | 15.89072 | -62.52048 | 8012 ft | 184 kts | 315° |
| 2026-05-04 21:36 | 15.89923 | -62.53038 | 8013 ft | 184 kts | 315° |
| 2026-05-04 21:37 | 15.90775 | -62.54031 | 8013 ft | 184 kts | 315° |
| 2026-05-04 21:37 | 15.91625 | -62.55021 | 8013 ft | 184 kts | 315° |
| 2026-05-04 21:37 | 15.92474 | -62.56010 | 8014 ft | 184 kts | 315° |
| 2026-05-04 21:37 | 15.93324 | -62.57000 | 8014 ft | 183 kts | 315° |
| 2026-05-04 21:38 | 15.93883 | -62.57652 | 8014 ft | 183 kts | 315° |
| 2026-05-04 21:38 | 15.94735 | -62.58644 | 8013 ft | 183 kts | 315° |
| 2026-05-04 21:38 | 15.95861 | -62.59957 | 8015 ft | 183 kts | 315° |
| 2026-05-04 21:38 | 15.96709 | -62.60947 | 8015 ft | 183 kts | 315° |
| 2026-05-04 21:39 | 15.97285 | -62.61617 | 8015 ft | 183 kts | 315° |
| 2026-05-04 21:39 | 15.98133 | -62.62607 | 8015 ft | 183 kts | 315° |
| 2026-05-04 21:39 | 15.98982 | -62.63596 | 8016 ft | 183 kts | 315° |
| 2026-05-04 21:39 | 15.99831 | -62.64587 | 8016 ft | 184 kts | 315° |
| 2026-05-04 21:40 | 16.00670 | -62.65566 | 8016 ft | 184 kts | 314° |
| 2026-05-04 21:40 | 16.01522 | -62.66559 | 8016 ft | 184 kts | 314° |
| 2026-05-04 21:40 | 16.02375 | -62.67555 | 8017 ft | 184 kts | 314° |
| 2026-05-04 21:40 | 16.03224 | -62.68546 | 8016 ft | 184 kts | 314° |
| 2026-05-04 21:41 | 16.04075 | -62.69539 | 8017 ft | 184 kts | 315° |
| 2026-05-04 21:41 | 16.04925 | -62.70532 | 8018 ft | 184 kts | 315° |
| 2026-05-04 21:41 | 16.05778 | -62.71528 | 8018 ft | 184 kts | 315° |
| 2026-05-04 21:41 | 16.06632 | -62.72525 | 8018 ft | 184 kts | 315° |
| 2026-05-04 21:42 | 16.07474 | -62.73508 | 8018 ft | 185 kts | 315° |
| 2026-05-04 21:42 | 16.08328 | -62.74506 | 8018 ft | 185 kts | 315° |
| 2026-05-04 21:42 | 16.09181 | -62.75503 | 8022 ft | 184 kts | 315° |
| 2026-05-04 21:42 | 16.10033 | -62.76498 | 8028 ft | 184 kts | 315° |
| 2026-05-04 21:43 | 16.10884 | -62.77493 | 8030 ft | 184 kts | 315° |
| 2026-05-04 21:43 | 16.11737 | -62.78489 | 8030 ft | 184 kts | 315° |
| 2026-05-04 21:43 | 16.12590 | -62.79486 | 8030 ft | 185 kts | 315° |
| 2026-05-04 21:43 | 16.13444 | -62.80485 | 8030 ft | 185 kts | 315° |
| 2026-05-04 21:44 | 16.14298 | -62.81483 | 8029 ft | 185 kts | 315° |
| 2026-05-04 21:44 | 16.15151 | -62.82481 | 8026 ft | 185 kts | 315° |
| 2026-05-04 21:44 | 16.16005 | -62.83479 | 8028 ft | 185 kts | 314° |
| 2026-05-04 21:44 | 16.16858 | -62.84477 | 8029 ft | 185 kts | 314° |
| 2026-05-04 21:45 | 16.17713 | -62.85477 | 8029 ft | 185 kts | 314° |
| 2026-05-04 21:45 | 16.18568 | -62.86478 | 8029 ft | 185 kts | 314° |
| 2026-05-04 21:45 | 16.19422 | -62.87477 | 8029 ft | 185 kts | 314° |
| 2026-05-04 21:45 | 16.20276 | -62.88476 | 8027 ft | 185 kts | 314° |
| 2026-05-04 21:46 | 16.21130 | -62.89476 | 8029 ft | 185 kts | 314° |
| 2026-05-04 21:46 | 16.21974 | -62.90465 | 8028 ft | 185 kts | 314° |
| 2026-05-04 21:46 | 16.22830 | -62.91467 | 8028 ft | 185 kts | 314° |
| 2026-05-04 21:46 | 16.23686 | -62.92469 | 8024 ft | 185 kts | 314° |
| 2026-05-04 21:47 | 16.24539 | -62.93468 | 8027 ft | 185 kts | 314° |
| 2026-05-04 21:47 | 16.25393 | -62.94468 | 8028 ft | 185 kts | 314° |
| 2026-05-04 21:47 | 16.26247 | -62.95469 | 8028 ft | 185 kts | 314° |
| 2026-05-04 21:47 | 16.27101 | -62.96470 | 8028 ft | 185 kts | 314° |
| 2026-05-04 21:48 | 16.27956 | -62.97473 | 8026 ft | 185 kts | 314° |
| 2026-05-04 21:48 | 16.28811 | -62.98475 | 8025 ft | 185 kts | 314° |
| 2026-05-04 21:48 | 16.29666 | -62.99477 | 8025 ft | 185 kts | 314° |
| 2026-05-04 21:48 | 16.30522 | -63.00481 | 8025 ft | 185 kts | 314° |
| 2026-05-04 21:49 | 16.31381 | -63.01487 | 8025 ft | 185 kts | 314° |
| 2026-05-04 21:49 | 16.32226 | -63.02477 | 8025 ft | 185 kts | 314° |
| 2026-05-04 21:49 | 16.33079 | -63.03478 | 8024 ft | 185 kts | 314° |
| 2026-05-04 21:49 | 16.33933 | -63.04480 | 8024 ft | 185 kts | 314° |
| 2026-05-04 21:50 | 16.34787 | -63.05482 | 8024 ft | 185 kts | 314° |
| 2026-05-04 21:50 | 16.35642 | -63.06486 | 8023 ft | 185 kts | 314° |
| 2026-05-04 21:50 | 16.36496 | -63.07487 | 8016 ft | 185 kts | 314° |
| 2026-05-04 21:50 | 16.37352 | -63.08492 | 8009 ft | 186 kts | 314° |
| 2026-05-04 21:51 | 16.38073 | -63.09338 | 8007 ft | 186 kts | 314° |
| 2026-05-04 21:51 | 16.38930 | -63.10344 | 8001 ft | 186 kts | 314° |
| 2026-05-04 21:51 | 16.39785 | -63.11349 | 8000 ft | 185 kts | 314° |
| 2026-05-04 21:51 | 16.40641 | -63.12354 | 8001 ft | 185 kts | 314° |
| 2026-05-04 21:52 | 16.41496 | -63.13359 | 8003 ft | 185 kts | 314° |
| 2026-05-04 21:52 | 16.42341 | -63.14351 | 8002 ft | 185 kts | 314° |
| 2026-05-04 21:52 | 16.43195 | -63.15355 | 8002 ft | 185 kts | 314° |
| 2026-05-04 21:52 | 16.44049 | -63.16358 | 8002 ft | 185 kts | 314° |
| 2026-05-04 21:53 | 16.44903 | -63.17363 | 8002 ft | 185 kts | 314° |
| 2026-05-04 21:53 | 16.45758 | -63.18367 | 8002 ft | 185 kts | 314° |
| 2026-05-04 21:53 | 16.46613 | -63.19373 | 8002 ft | 185 kts | 314° |
| 2026-05-04 21:53 | 16.47467 | -63.20377 | 8002 ft | 185 kts | 314° |
| 2026-05-04 21:54 | 16.48321 | -63.21382 | 8000 ft | 185 kts | 314° |
| 2026-05-04 21:54 | 16.49175 | -63.22387 | 8002 ft | 185 kts | 314° |
| 2026-05-04 21:54 | 16.50030 | -63.23392 | 8002 ft | 185 kts | 314° |
| 2026-05-04 21:54 | 16.50887 | -63.24400 | 8001 ft | 185 kts | 314° |
| 2026-05-04 21:55 | 16.51730 | -63.25392 | 8000 ft | 185 kts | 314° |
| 2026-05-04 21:55 | 16.52583 | -63.26396 | 8000 ft | 185 kts | 314° |
| 2026-05-04 21:55 | 16.53440 | -63.27405 | 8000 ft | 185 kts | 314° |
| 2026-05-04 21:55 | 16.54296 | -63.28413 | 8000 ft | 185 kts | 314° |
| 2026-05-04 21:56 | 16.55150 | -63.29418 | 8000 ft | 185 kts | 314° |
| 2026-05-04 21:56 | 16.56005 | -63.30424 | 8000 ft | 185 kts | 314° |
| 2026-05-04 21:56 | 16.56859 | -63.31431 | 8000 ft | 185 kts | 314° |
| 2026-05-04 21:56 | 16.57713 | -63.32437 | 8000 ft | 185 kts | 314° |
| 2026-05-04 21:57 | 16.58568 | -63.33443 | 8000 ft | 185 kts | 314° |
| 2026-05-04 21:57 | 16.59424 | -63.34452 | 8000 ft | 185 kts | 314° |
| 2026-05-04 21:57 | 16.60268 | -63.35447 | 8001 ft | 185 kts | 314° |
| 2026-05-04 21:57 | 16.61123 | -63.36454 | 8001 ft | 185 kts | 314° |
| 2026-05-04 21:58 | 16.61979 | -63.37464 | 8001 ft | 185 kts | 314° |
| 2026-05-04 21:58 | 16.62834 | -63.38471 | 8001 ft | 185 kts | 314° |
| 2026-05-04 21:58 | 16.63687 | -63.39478 | 7999 ft | 185 kts | 314° |
| 2026-05-04 21:58 | 16.64542 | -63.40485 | 8000 ft | 185 kts | 314° |
| 2026-05-04 21:59 | 16.65396 | -63.41493 | 8000 ft | 185 kts | 314° |
| 2026-05-04 21:59 | 16.66250 | -63.42501 | 7998 ft | 186 kts | 314° |
| 2026-05-04 21:59 | 16.67105 | -63.43510 | 7999 ft | 185 kts | 314° |
| 2026-05-04 21:59 | 16.67961 | -63.44520 | 8000 ft | 185 kts | 314° |
| 2026-05-04 22:00 | 16.68815 | -63.45528 | 8000 ft | 185 kts | 314° |
| 2026-05-04 22:00 | 16.69670 | -63.46537 | 7995 ft | 185 kts | 314° |
| 2026-05-04 22:00 | 16.70523 | -63.47544 | 7999 ft | 185 kts | 314° |
| 2026-05-04 22:00 | 16.71375 | -63.48549 | 8000 ft | 185 kts | 314° |
| 2026-05-04 22:01 | 16.72227 | -63.49555 | 8000 ft | 185 kts | 314° |
| 2026-05-04 22:01 | 16.73079 | -63.50562 | 8000 ft | 185 kts | 314° |
| 2026-05-04 22:01 | 16.73930 | -63.51567 | 7999 ft | 185 kts | 314° |
| 2026-05-04 22:01 | 16.74771 | -63.52560 | 8000 ft | 185 kts | 314° |
| 2026-05-04 22:02 | 16.75622 | -63.53566 | 8000 ft | 185 kts | 314° |
| 2026-05-04 22:02 | 16.76306 | -63.54374 | 8000 ft | 185 kts | 314° |
| 2026-05-04 22:02 | 16.77157 | -63.55380 | 8000 ft | 185 kts | 314° |
| 2026-05-04 22:02 | 16.78008 | -63.56386 | 8000 ft | 185 kts | 314° |
| 2026-05-04 22:03 | 16.78858 | -63.57391 | 8000 ft | 185 kts | 314° |
| 2026-05-04 22:03 | 16.79709 | -63.58398 | 8005 ft | 185 kts | 314° |
| 2026-05-04 22:03 | 16.80559 | -63.59402 | 8007 ft | 185 kts | 314° |
| 2026-05-04 22:03 | 16.81410 | -63.60408 | 8007 ft | 185 kts | 314° |
| 2026-05-04 22:04 | 16.82259 | -63.61412 | 8007 ft | 185 kts | 314° |
| 2026-05-04 22:04 | 16.83111 | -63.62421 | 8007 ft | 185 kts | 314° |
| 2026-05-04 22:04 | 16.83961 | -63.63426 | 8007 ft | 185 kts | 314° |
| 2026-05-04 22:04 | 16.84812 | -63.64434 | 8007 ft | 185 kts | 314° |
| 2026-05-04 22:05 | 16.85662 | -63.65440 | 8007 ft | 185 kts | 314° |
| 2026-05-04 22:05 | 16.86501 | -63.66433 | 8009 ft | 185 kts | 314° |
| 2026-05-04 22:05 | 16.87352 | -63.67441 | 8009 ft | 185 kts | 314° |
| 2026-05-04 22:05 | 16.88204 | -63.68449 | 8009 ft | 185 kts | 314° |
| 2026-05-04 22:06 | 16.89054 | -63.69457 | 8009 ft | 185 kts | 314° |
| 2026-05-04 22:06 | 16.89907 | -63.70467 | 8010 ft | 185 kts | 314° |
| 2026-05-04 22:06 | 16.90763 | -63.71478 | 8010 ft | 185 kts | 313° |
| 2026-05-04 22:06 | 16.91613 | -63.72486 | 8018 ft | 185 kts | 314° |
| 2026-05-04 22:07 | 16.92462 | -63.73495 | 8011 ft | 185 kts | 313° |
| 2026-05-04 22:07 | 16.93312 | -63.74502 | 8009 ft | 185 kts | 314° |
| 2026-05-04 22:07 | 16.94164 | -63.75513 | 8005 ft | 185 kts | 314° |
| 2026-05-04 22:07 | 16.95015 | -63.76527 | 7997 ft | 186 kts | 314° |
| 2026-05-04 22:08 | 16.95712 | -63.77353 | 8004 ft | 185 kts | 314° |
| 2026-05-04 22:08 | 16.96566 | -63.78364 | 7998 ft | 186 kts | 314° |
| 2026-05-04 22:08 | 16.97420 | -63.79373 | 8001 ft | 185 kts | 313° |
| 2026-05-04 22:08 | 16.98273 | -63.80384 | 8000 ft | 185 kts | 313° |
| 2026-05-04 22:09 | 16.99126 | -63.81396 | 8000 ft | 185 kts | 313° |
| 2026-05-04 22:09 | 16.99978 | -63.82407 | 8001 ft | 185 kts | 313° |
| 2026-05-04 22:09 | 17.00820 | -63.83407 | 8001 ft | 185 kts | 313° |
| 2026-05-04 22:09 | 17.01671 | -63.84417 | 8001 ft | 185 kts | 313° |
| 2026-05-04 22:10 | 17.02524 | -63.85428 | 8001 ft | 185 kts | 313° |
| 2026-05-04 22:10 | 17.03377 | -63.86441 | 8001 ft | 185 kts | 313° |
| 2026-05-04 22:10 | 17.04230 | -63.87454 | 8001 ft | 186 kts | 313° |
| 2026-05-04 22:10 | 17.05083 | -63.88468 | 8001 ft | 186 kts | 313° |
| 2026-05-04 22:11 | 17.05936 | -63.89481 | 8002 ft | 186 kts | 313° |
| 2026-05-04 22:11 | 17.06788 | -63.90494 | 8002 ft | 186 kts | 313° |
| 2026-05-04 22:11 | 17.07640 | -63.91505 | 8002 ft | 186 kts | 313° |
| 2026-05-04 22:11 | 17.08493 | -63.92519 | 8002 ft | 186 kts | 313° |
| 2026-05-04 22:12 | 17.09346 | -63.93533 | 8002 ft | 186 kts | 313° |
| 2026-05-04 22:12 | 17.10200 | -63.94549 | 8002 ft | 186 kts | 313° |
| 2026-05-04 22:12 | 17.11053 | -63.95563 | 8001 ft | 186 kts | 313° |
| 2026-05-04 22:12 | 17.11911 | -63.96582 | 7999 ft | 186 kts | 313° |
| 2026-05-04 22:13 | 17.12766 | -63.97599 | 8000 ft | 186 kts | 313° |
| 2026-05-04 22:13 | 17.13609 | -63.98603 | 8001 ft | 186 kts | 313° |
| 2026-05-04 22:13 | 17.14465 | -63.99621 | 7998 ft | 186 kts | 313° |
| 2026-05-04 22:13 | 17.15319 | -64.00637 | 8001 ft | 187 kts | 313° |
| 2026-05-04 22:14 | 17.16179 | -64.01658 | 8002 ft | 187 kts | 313° |
| 2026-05-04 22:14 | 17.17039 | -64.02679 | 8002 ft | 187 kts | 313° |
| 2026-05-04 22:14 | 17.17897 | -64.03699 | 8001 ft | 187 kts | 313° |
| 2026-05-04 22:14 | 17.18758 | -64.04723 | 8007 ft | 187 kts | 313° |
| 2026-05-04 22:15 | 17.19617 | -64.05747 | 7994 ft | 188 kts | 313° |
| 2026-05-04 22:15 | 17.20481 | -64.06775 | 8007 ft | 188 kts | 313° |
| 2026-05-04 22:15 | 17.21343 | -64.07806 | 8000 ft | 188 kts | 313° |
| 2026-05-04 22:15 | 17.22206 | -64.08831 | 8001 ft | 188 kts | 313° |
| 2026-05-04 22:16 | 17.23058 | -64.09842 | 8006 ft | 187 kts | 313° |
| 2026-05-04 22:16 | 17.23919 | -64.10865 | 8002 ft | 187 kts | 313° |
| 2026-05-04 22:16 | 17.24778 | -64.11887 | 8002 ft | 187 kts | 313° |
| 2026-05-04 22:16 | 17.25636 | -64.12908 | 8002 ft | 187 kts | 313° |
| 2026-05-04 22:17 | 17.26495 | -64.13930 | 8001 ft | 187 kts | 313° |
| 2026-05-04 22:17 | 17.27352 | -64.14950 | 8002 ft | 187 kts | 313° |
| 2026-05-04 22:17 | 17.28208 | -64.15969 | 8003 ft | 187 kts | 313° |
| 2026-05-04 22:17 | 17.29067 | -64.16992 | 8003 ft | 187 kts | 313° |
| 2026-05-04 22:18 | 17.29941 | -64.18031 | 7857 ft | 194 kts | 313° |
| 2026-05-04 22:18 | 17.30846 | -64.19107 | 7662 ft | 199 kts | 313° |
| 2026-05-04 22:18 | 17.31766 | -64.20204 | 7460 ft | 201 kts | 312° |
| 2026-05-04 22:18 | 17.32695 | -64.21310 | 7266 ft | 202 kts | 313° |
| 2026-05-04 22:19 | 17.33624 | -64.22420 | 7069 ft | 203 kts | 312° |
| 2026-05-04 22:19 | 17.34554 | -64.23532 | 6870 ft | 203 kts | 313° |
| 2026-05-04 22:19 | 17.35474 | -64.24625 | 6678 ft | 202 kts | 313° |
| 2026-05-04 22:19 | 17.36415 | -64.25745 | 6481 ft | 203 kts | 313° |
| 2026-05-04 22:20 | 17.37333 | -64.26840 | 6285 ft | 202 kts | 313° |
| 2026-05-04 22:20 | 17.38263 | -64.27947 | 6081 ft | 202 kts | 312° |
| 2026-05-04 22:20 | 17.39190 | -64.29055 | 5879 ft | 202 kts | 313° |
| 2026-05-04 22:20 | 17.40118 | -64.30165 | 5670 ft | 202 kts | 313° |
| 2026-05-04 22:21 | 17.41042 | -64.31268 | 5468 ft | 202 kts | 313° |
| 2026-05-04 22:21 | 17.41966 | -64.32372 | 5269 ft | 201 kts | 313° |
| 2026-05-04 22:21 | 17.42885 | -64.33470 | 5078 ft | 200 kts | 313° |
| 2026-05-04 22:21 | 17.43803 | -64.34568 | 4873 ft | 200 kts | 313° |
| 2026-05-04 22:22 | 17.44721 | -64.35664 | 4673 ft | 200 kts | 313° |
| 2026-05-04 22:22 | 17.45624 | -64.36742 | 4475 ft | 199 kts | 313° |
| 2026-05-04 22:22 | 17.46547 | -64.37845 | 4273 ft | 198 kts | 313° |
| 2026-05-04 22:22 | 17.47443 | -64.38915 | 4076 ft | 198 kts | 313° |
| 2026-05-04 22:23 | 17.48349 | -64.39998 | 3875 ft | 197 kts | 313° |
| 2026-05-04 22:23 | 17.48960 | -64.40729 | 3740 ft | 197 kts | 313° |
| 2026-05-04 22:23 | 17.50154 | -64.42156 | 3476 ft | 197 kts | 313° |
| 2026-05-04 22:23 | 17.51055 | -64.43233 | 3276 ft | 196 kts | 313° |
| 2026-05-04 22:24 | 17.51954 | -64.44309 | 3076 ft | 196 kts | 313° |
| 2026-05-04 22:24 | 17.52849 | -64.45383 | 2876 ft | 196 kts | 313° |
| 2026-05-04 22:24 | 17.53515 | -64.46624 | 2679 ft | 196 kts | 291° |
| 2026-05-04 22:24 | 17.53947 | -64.47978 | 2482 ft | 196 kts | 287° |
| 2026-05-04 22:25 | 17.54339 | -64.49351 | 2282 ft | 196 kts | 286° |
| 2026-05-04 22:25 | 17.54721 | -64.50715 | 2122 ft | 193 kts | 286° |
| 2026-05-04 22:25 | 17.55094 | -64.52051 | 2026 ft | 189 kts | 286° |
| 2026-05-04 22:25 | 17.55451 | -64.53335 | 2002 ft | 183 kts | 286° |
| 2026-05-04 22:26 | 17.55804 | -64.54604 | 1997 ft | 179 kts | 286° |
| 2026-05-04 22:26 | 17.56152 | -64.55849 | 1997 ft | 177 kts | 286° |
| 2026-05-04 22:26 | 17.56498 | -64.57083 | 1999 ft | 175 kts | 286° |
| 2026-05-04 22:26 | 17.56840 | -64.58306 | 2000 ft | 175 kts | 286° |
| 2026-05-04 22:27 | 17.57182 | -64.59524 | 2000 ft | 174 kts | 286° |
| 2026-05-04 22:27 | 17.57523 | -64.60741 | 2001 ft | 174 kts | 286° |
| 2026-05-04 22:27 | 17.57865 | -64.61960 | 2001 ft | 174 kts | 286° |
| 2026-05-04 22:27 | 17.58206 | -64.63177 | 2002 ft | 174 kts | 286° |
| 2026-05-04 22:28 | 17.58432 | -64.63981 | 2001 ft | 173 kts | 286° |
| 2026-05-04 22:28 | 17.58882 | -64.65587 | 2001 ft | 173 kts | 286° |
| 2026-05-04 22:28 | 17.59222 | -64.66797 | 2000 ft | 173 kts | 286° |
| 2026-05-04 22:28 | 17.59563 | -64.68003 | 2002 ft | 172 kts | 286° |
| 2026-05-04 22:29 | 17.59904 | -64.69203 | 2001 ft | 172 kts | 286° |
| 2026-05-04 22:29 | 17.60135 | -64.70014 | 2001 ft | 171 kts | 286° |
| 2026-05-04 22:29 | 17.60471 | -64.71193 | 2001 ft | 171 kts | 286° |
| 2026-05-04 22:29 | 17.60812 | -64.72388 | 2001 ft | 171 kts | 286° |
| 2026-05-04 22:30 | 17.61154 | -64.73587 | 2001 ft | 171 kts | 286° |
| 2026-05-04 22:30 | 17.61494 | -64.74781 | 2001 ft | 171 kts | 286° |
| 2026-05-04 22:30 | 17.61835 | -64.75976 | 2001 ft | 171 kts | 286° |
| 2026-05-04 22:30 | 17.62124 | -64.77185 | 2002 ft | 170 kts | 278° |
| 2026-05-04 22:31 | 17.62277 | -64.78367 | 1974 ft | 161 kts | 276° |
| 2026-05-04 22:31 | 17.62408 | -64.79552 | 1764 ft | 165 kts | 275° |
| 2026-05-04 22:31 | 17.62538 | -64.80742 | 1607 ft | 163 kts | 275° |
| 2026-05-04 22:31 | 17.62628 | -64.81913 | 1517 ft | 159 kts | 272° |
| 2026-05-04 22:32 | 17.62686 | -64.83048 | 1497 ft | 154 kts | 271° |
| 2026-05-04 22:32 | 17.62739 | -64.84157 | 1496 ft | 151 kts | 271° |
| 2026-05-04 22:32 | 17.62792 | -64.85255 | 1498 ft | 151 kts | 271° |
| 2026-05-04 22:32 | 17.62844 | -64.86338 | 1499 ft | 150 kts | 271° |
| 2026-05-04 22:33 | 17.62896 | -64.87432 | 1500 ft | 150 kts | 271° |
| 2026-05-04 22:33 | 17.62949 | -64.88527 | 1500 ft | 150 kts | 271° |
| 2026-05-04 22:33 | 17.63002 | -64.89621 | 1500 ft | 150 kts | 271° |
| 2026-05-04 22:33 | 17.63055 | -64.90716 | 1500 ft | 150 kts | 271° |
| 2026-05-04 22:34 | 17.63108 | -64.91812 | 1500 ft | 150 kts | 271° |
| 2026-05-04 22:34 | 17.63161 | -64.92908 | 1500 ft | 150 kts | 271° |
| 2026-05-04 22:34 | 17.63214 | -64.94002 | 1500 ft | 150 kts | 271° |
| 2026-05-04 22:34 | 17.63268 | -64.95098 | 1499 ft | 150 kts | 271° |
| 2026-05-04 22:35 | 17.63321 | -64.96193 | 1499 ft | 150 kts | 271° |
| 2026-05-04 22:35 | 17.63374 | -64.97288 | 1499 ft | 150 kts | 271° |
| 2026-05-04 22:35 | 17.63428 | -64.98388 | 1499 ft | 150 kts | 271° |
| 2026-05-04 22:35 | 17.63483 | -64.99490 | 1499 ft | 152 kts | 271° |
| 2026-05-04 22:36 | 17.63540 | -65.00603 | 1501 ft | 153 kts | 271° |
| 2026-05-04 22:36 | 17.63595 | -65.01703 | 1501 ft | 153 kts | 271° |
| 2026-05-04 22:36 | 17.63652 | -65.02818 | 1500 ft | 153 kts | 271° |
| 2026-05-04 22:36 | 17.63708 | -65.03933 | 1501 ft | 153 kts | 271° |
| 2026-05-04 22:37 | 17.63763 | -65.05043 | 1501 ft | 151 kts | 271° |
| 2026-05-04 22:37 | 17.63817 | -65.06141 | 1499 ft | 151 kts | 271° |
| 2026-05-04 22:37 | 17.63872 | -65.07241 | 1500 ft | 150 kts | 271° |
| 2026-05-04 22:37 | 17.63926 | -65.08335 | 1500 ft | 150 kts | 271° |
| 2026-05-04 22:38 | 17.63980 | -65.09432 | 1500 ft | 150 kts | 271° |
| 2026-05-04 22:38 | 17.64035 | -65.10528 | 1501 ft | 150 kts | 271° |
| 2026-05-04 22:38 | 17.64090 | -65.11622 | 1501 ft | 150 kts | 271° |
| 2026-05-04 22:38 | 17.64144 | -65.12717 | 1501 ft | 150 kts | 271° |
| 2026-05-04 22:39 | 17.64197 | -65.13805 | 1500 ft | 150 kts | 271° |
| 2026-05-04 22:39 | 17.64251 | -65.14893 | 1501 ft | 149 kts | 271° |
| 2026-05-04 22:39 | 17.64437 | -65.15959 | 1486 ft | 150 kts | 297° |
| 2026-05-04 22:39 | 17.65214 | -65.16600 | 1495 ft | 145 kts | 347° |
| 2026-05-04 22:40 | 17.66150 | -65.16425 | 1485 ft | 137 kts | 38° |
| 2026-05-04 22:40 | 17.66576 | -65.15600 | 1483 ft | 130 kts | 88° |
| 2026-05-04 22:40 | 17.66484 | -65.14713 | 1757 ft | 113 kts | 100° |
| 2026-05-04 22:40 | 17.66391 | -65.13897 | 1897 ft | 118 kts | 95° |
| 2026-05-04 22:41 | 17.66390 | -65.13014 | 2009 ft | 120 kts | 89° |
| 2026-05-04 22:41 | 17.66445 | -65.12173 | 2236 ft | 115 kts | 88° |
| 2026-05-04 22:41 | 17.66523 | -65.11313 | 2328 ft | 121 kts | 86° |
| 2026-05-04 22:41 | 17.66615 | -65.10453 | 2539 ft | 115 kts | 86° |
| 2026-05-04 22:42 | 17.66709 | -65.09616 | 2703 ft | 119 kts | 86° |
| 2026-05-04 22:42 | 17.66807 | -65.08767 | 2928 ft | 114 kts | 86° |
| 2026-05-04 22:42 | 17.66903 | -65.07943 | 3060 ft | 117 kts | 86° |
| 2026-05-04 22:42 | 17.67004 | -65.07080 | 3161 ft | 118 kts | 85° |
| 2026-05-04 22:43 | 17.67104 | -65.06236 | 3328 ft | 116 kts | 86° |
| 2026-05-04 22:43 | 17.67205 | -65.05382 | 3443 ft | 118 kts | 86° |
| 2026-05-04 22:43 | 17.67304 | -65.04534 | 3607 ft | 116 kts | 86° |
| 2026-05-04 22:43 | 17.67404 | -65.03686 | 3729 ft | 118 kts | 86° |
| 2026-05-04 22:44 | 17.67505 | -65.02831 | 3870 ft | 116 kts | 86° |
| 2026-05-04 22:44 | 17.67599 | -65.02052 | 4082 ft | 105 kts | 86° |
| 2026-05-04 22:44 | 17.67690 | -65.01253 | 3846 ft | 125 kts | 86° |
| 2026-05-04 22:44 | 17.67796 | -65.00349 | 3519 ft | 118 kts | 86° |
| 2026-05-04 22:45 | 17.67898 | -64.99491 | 2983 ft | 120 kts | 86° |
| 2026-05-04 22:45 | 17.68097 | -64.97795 | 2278 ft | 118 kts | 85° |
| 2026-05-04 22:45 | 17.68197 | -64.96945 | 1910 ft | 116 kts | 85° |
| 2026-05-04 22:46 | 17.68295 | -64.96117 | 1641 ft | 111 kts | 85° |
| 2026-05-04 22:46 | 17.68388 | -64.95322 | 1525 ft | 110 kts | 85° |
| 2026-05-04 22:46 | 17.68482 | -64.94523 | 1378 ft | 115 kts | 85° |
| 2026-05-04 22:46 | 17.68582 | -64.93654 | 1202 ft | 121 kts | 85° |
| 2026-05-04 22:47 | 17.68684 | -64.92801 | 1275 ft | 113 kts | 85° |
| 2026-05-04 22:47 | 17.68777 | -64.92020 | 1397 ft | 105 kts | 85° |
| 2026-05-04 22:47 | 17.68904 | -64.91272 | 1482 ft | 105 kts | 77° |
| 2026-05-04 22:47 | 17.69111 | -64.90522 | 1508 ft | 109 kts | 78° |
| 2026-05-04 22:48 | 17.69273 | -64.89737 | 1507 ft | 111 kts | 83° |
| 2026-05-04 22:48 | 17.69371 | -64.88932 | 1505 ft | 111 kts | 87° |
| 2026-05-04 22:48 | 17.69428 | -64.88156 | 1495 ft | 105 kts | 88° |
| 2026-05-04 22:48 | 17.69471 | -64.87392 | 1420 ft | 107 kts | 89° |
| 2026-05-04 22:49 | 17.69519 | -64.86596 | 1262 ft | 111 kts | 88° |
| 2026-05-04 22:49 | 17.69585 | -64.85772 | 1065 ft | 114 kts | 87° |
| 2026-05-04 22:49 | 17.69668 | -64.84944 | 886 ft | 112 kts | 86° |
| 2026-05-04 22:49 | 17.69754 | -64.84153 | 712 ft | 107 kts | 86° |
| 2026-05-04 22:50 | 17.69838 | -64.83391 | 579 ft | 103 kts | 86° |
| 2026-05-04 22:50 | 17.69914 | -64.82644 | 433 ft | 104 kts | 86° |
| 2026-05-04 22:50 | 17.69988 | -64.81899 | 273 ft | 103 kts | 86° |
| 2026-05-04 22:50 | 17.70050 | -64.81167 | 73 ft | 97 kts | 86° |
| 2026-05-04 22:51 | 17.70096 | -64.80641 | 70 ft | 41 kts | 81° |
| 2026-05-04 22:51 | 17.70119 | -64.80468 | 70 ft | 22 kts | 83° |
| 2026-05-04 22:51 | 17.70136 | -64.80271 | 70 ft | 25 kts | 84° |
| 2026-05-04 22:51 | 17.70154 | -64.80130 | 70 ft | 15 kts | 84° |
| 2026-05-04 22:52 | 17.70168 | -64.80015 | 70 ft | 13 kts | 82° |
| 2026-05-04 22:52 | 17.70154 | -64.79880 | 70 ft | 21 kts | 115° |
| 2026-05-04 22:52 | 17.70101 | -64.79762 | 70 ft | 20 kts | 114° |
| 2026-05-04 22:52 | 17.70071 | -64.79628 | 70 ft | 18 kts | 84° |
| 2026-05-04 22:53 | 17.70084 | -64.79493 | 70 ft | 24 kts | 84° |
| 2026-05-04 22:53 | 17.70094 | -64.79352 | 70 ft | 14 kts | 114° |
| 2026-05-04 22:53 | 17.70041 | -64.79274 | 70 ft | 12 kts | 105° |
| 2026-05-04 22:53 | 17.70038 | -64.79218 | 70 ft | 4 kts | 81° |
| 2026-05-04 22:54 | 17.70013 | -64.79192 | 70 ft | 0 kts | 176° |